TimeCST,TemperatureF,Dew PointF,Humidity,Sea Level PressureIn,VisibilityMPH,Wind Direction,Wind SpeedMPH,Gust SpeedMPH,PrecipitationIn,Events,Conditions,WindDirDegrees,DateUTC
12:52 AM,32.0,30.0,92,30.18,4.0,SSE,6.9,-,N/A,,Partly Cloudy,150,2011-11-23 06:52:00
1:52 AM,32.0,30.9,96,30.17,3.0,SSE,8.1,-,N/A,,Scattered Clouds,160,2011-11-23 07:52:00
2:36 AM,30.2,30.2,100,30.14,1.0,SSE,9.2,-,N/A,,Scattered Clouds,160,2011-11-23 08:36:00
2:52 AM,33.8,33.8,100,30.15,0.2,South,9.2,-,N/A,Fog,Fog,170,2011-11-23 08:52:00
3:02 AM,33.8,33.8,100,30.15,0.2,South,6.9,-,N/A,Fog,Fog,180,2011-11-23 09:02:00
3:39 AM,33.8,33.8,100,30.14,0.2,SSE,9.2,-,N/A,Fog,Fog,160,2011-11-23 09:39:00
3:52 AM,34.0,33.1,96,30.17,0.2,South,9.2,-,N/A,Fog,Fog,170,2011-11-23 09:52:00
4:52 AM,34.0,34.0,100,30.17,0.2,South,12.7,-,N/A,Fog,Fog,170,2011-11-23 10:52:00
6:16 AM,35.6,33.8,93,30.16,0.5,South,11.5,-,N/A,Fog,Fog,170,2011-11-23 12:16:00
6:52 AM,34.0,34.0,100,30.18,0.5,South,10.4,-,N/A,,Overcast,180,2011-11-23 12:52:00
7:13 AM,33.8,33.8,100,30.17,1.0,SSE,11.5,-,N/A,,Overcast,160,2011-11-23 13:13:00
7:52 AM,33.1,32.0,96,30.20,1.0,South,10.4,-,N/A,,Overcast,170,2011-11-23 13:52:00
8:13 AM,33.8,32.0,93,30.18,0.8,SSE,12.7,-,N/A,,Overcast,160,2011-11-23 14:13:00
8:52 AM,34.0,33.1,96,30.19,0.5,SSE,12.7,-,N/A,Fog,Fog,160,2011-11-23 14:52:00
9:52 AM,35.1,34.0,96,30.20,0.5,South,12.7,-,N/A,Fog,Fog,180,2011-11-23 15:52:00
10:52 AM,37.0,35.1,93,30.21,0.8,South,8.1,-,N/A,,Overcast,180,2011-11-23 16:52:00
11:48 AM,37.4,35.6,93,30.17,1.0,SSE,11.5,-,N/A,,Overcast,160,2011-11-23 17:48:00
11:52 AM,37.9,35.1,89,30.20,2.0,South,10.4,-,N/A,,Overcast,170,2011-11-23 17:52:00
12:52 PM,39.2,35.6,87,30.15,7.0,SE,13.8,-,N/A,,Mostly Cloudy,140,2011-11-23 18:52:00
1:32 PM,42.8,35.6,76,30.15,7.0,SSE,10.4,-,N/A,,Mostly Cloudy,160,2011-11-23 19:32:00
1:52 PM,44.1,36.0,73,30.17,7.0,SSE,10.4,-,N/A,,Scattered Clouds,160,2011-11-23 19:52:00
2:52 PM,45.0,37.0,74,30.15,7.0,SSE,11.5,-,N/A,,Partly Cloudy,150,2011-11-23 20:52:00
3:52 PM,46.9,37.0,68,30.13,8.0,South,10.4,-,N/A,,Partly Cloudy,170,2011-11-23 21:52:00
4:52 PM,45.0,37.9,76,30.14,8.0,SSE,6.9,-,N/A,,Partly Cloudy,160,2011-11-23 22:52:00
5:52 PM,39.0,36.0,89,30.14,8.0,SE,6.9,-,N/A,,Partly Cloudy,140,2011-11-23 23:52:00
6:52 PM,39.0,36.0,89,30.14,7.0,SSE,8.1,-,N/A,,Partly Cloudy,150,2011-11-24 00:52:00
7:52 PM,39.9,36.0,86,30.13,7.0,SSE,8.1,-,N/A,,Partly Cloudy,160,2011-11-24 01:52:00
8:52 PM,39.9,37.0,89,30.13,7.0,SSE,8.1,-,N/A,,Clear,150,2011-11-24 02:52:00
9:52 PM,37.9,35.1,89,30.13,6.0,SSE,8.1,-,N/A,,Clear,150,2011-11-24 03:52:00
10:52 PM,37.0,35.1,93,30.12,6.0,SSE,8.1,-,N/A,,Clear,150,2011-11-24 04:52:00
11:52 PM,39.0,36.0,89,30.11,7.0,SSE,9.2,-,N/A,,Clear,160,2011-11-24 05:52:00